createdAt,value
2018-09-23T00:00:01.786Z,101818.98
2018-09-23T00:01:02.087Z,101818.22
2018-09-23T00:02:02.488Z,101816.64
2018-09-23T00:03:02.802Z,101815.20
2018-09-23T00:04:03.141Z,101813.85
2018-09-23T00:05:03.707Z,101812.33
2018-09-23T00:06:04.087Z,101810.21
2018-09-23T00:07:04.475Z,101808.86
2018-09-23T00:08:04.862Z,101807.59
2018-09-23T00:09:05.677Z,101806.32
2018-09-23T00:10:06.048Z,101805.87
2018-09-23T00:11:06.677Z,101804.26
2018-09-23T00:12:07.300Z,101803.04
2018-09-23T00:13:07.392Z,101802.28
2018-09-23T00:14:08.251Z,101801.19
2018-09-23T00:15:08.548Z,101799.87
2018-09-23T00:16:08.849Z,101799.12
2018-09-23T00:17:09.291Z,101797.51
2018-09-23T00:18:09.578Z,101796.04
2018-09-23T00:19:10.039Z,101794.27
2018-09-23T00:19:18.137Z,101761.02
2018-09-23T00:20:19.460Z,101760.59
2018-09-23T00:21:19.733Z,101760.94
2018-09-23T00:22:20.132Z,101760.77
2018-09-23T00:23:19.316Z,101760.09
2018-09-23T00:24:20.641Z,101759.86
2018-09-23T00:25:21.034Z,101760.09
2018-09-23T00:26:21.385Z,101760.51
2018-09-23T00:27:21.621Z,101760.94
2018-09-23T00:28:21.950Z,101760.94
2018-09-23T00:29:22.211Z,101760.20
2018-09-23T00:30:22.516Z,101759.78
2018-09-23T00:31:22.923Z,101758.80
2018-09-23T00:32:23.451Z,101757.73
2018-09-23T00:33:23.833Z,101757.22
2018-09-23T00:34:24.171Z,101756.06
2018-09-23T00:35:24.705Z,101755.05
2018-09-23T00:36:25.095Z,101754.16
2018-09-23T00:37:25.500Z,101753.22
2018-09-23T00:38:25.891Z,101752.20
2018-09-23T00:39:26.208Z,101751.53
2018-09-23T00:40:26.615Z,101750.69
2018-09-23T00:41:26.921Z,101750.09
2018-09-23T00:42:27.240Z,101749.08
2018-09-23T00:43:27.553Z,101748.45
2018-09-23T00:44:27.884Z,101746.71
2018-09-23T00:45:28.177Z,101746.03
2018-09-23T00:46:28.707Z,101744.73
2018-09-23T00:47:29.103Z,101743.80
2018-09-23T00:48:29.420Z,101742.70
2018-09-23T00:49:29.704Z,101741.59
2018-09-23T00:50:29.981Z,101740.72
2018-09-23T00:51:30.884Z,101739.84
2018-09-23T00:52:31.431Z,101738.66
2018-09-23T00:53:31.769Z,101736.93
2018-09-23T00:54:32.016Z,101735.58
2018-09-23T00:55:32.217Z,101734.14
2018-09-23T00:56:32.477Z,101732.53
2018-09-23T00:57:32.948Z,101731.94
2018-09-23T00:58:33.246Z,101730.78
2018-09-23T00:59:33.544Z,101729.27
2018-09-23T01:00:33.821Z,101728.16
2018-09-23T01:01:34.249Z,101726.92
2018-09-23T01:02:34.596Z,101725.48
2018-09-23T01:02:42.995Z,101705.94
2018-09-23T01:03:44.167Z,101705.34
2018-09-23T01:04:44.750Z,101705.72
2018-09-23T01:05:45.106Z,101705.50
2018-09-23T01:06:45.430Z,101704.82
2018-09-23T01:07:45.730Z,101704.43
2018-09-23T01:08:46.167Z,101703.24
2018-09-23T01:09:46.798Z,101702.39
2018-09-23T01:10:47.117Z,101700.45
2018-09-23T01:11:47.632Z,101698.84
2018-09-23T01:12:48.001Z,101697.74
2018-09-23T01:13:48.071Z,101696.90
2018-09-23T01:14:48.765Z,101695.45
2018-09-23T01:15:49.154Z,101694.45
2018-09-23T01:16:49.477Z,101692.67
2018-09-23T01:17:49.888Z,101691.14
2018-09-23T01:18:50.186Z,101688.89
2018-09-23T01:19:50.570Z,101687.09
2018-09-23T01:20:51.109Z,101685.14
2018-09-23T01:21:50.350Z,101683.53
2018-09-23T01:22:51.714Z,101682.09
2018-09-23T01:23:52.119Z,101680.23
2018-09-23T01:24:52.464Z,101678.54
2018-09-23T01:25:52.949Z,101676.22
2018-09-23T01:26:53.256Z,101674.70
2018-09-23T01:27:53.603Z,101673.34
2018-09-23T01:28:54.107Z,101671.73
2018-09-23T01:29:54.540Z,101671.14
2018-09-23T01:30:54.839Z,101669.62
2018-09-23T01:31:55.152Z,101669.16
2018-09-23T01:32:55.657Z,101667.81
2018-09-23T01:33:56.136Z,101666.88
2018-09-23T01:34:55.630Z,101666.45
2018-09-23T01:35:56.921Z,101665.52
2018-09-23T01:36:57.349Z,101664.22
2018-09-23T01:37:57.626Z,101663.20
2018-09-23T01:38:57.858Z,101662.33
2018-09-23T01:39:58.150Z,101660.89
2018-09-23T01:40:58.345Z,101659.79
2018-09-23T01:41:58.815Z,101658.09
2018-09-23T01:42:59.088Z,101656.83
2018-09-23T01:43:59.278Z,101655.53
2018-09-23T01:44:59.482Z,101654.42
2018-09-23T01:45:59.786Z,101652.23
2018-09-23T01:47:00.232Z,101650.11
2018-09-23T01:47:10.277Z,101623.09
2018-09-23T01:48:11.298Z,101622.19
2018-09-23T01:49:12.275Z,101621.94
2018-09-23T01:50:12.528Z,101621.59
2018-09-23T01:51:12.769Z,101620.92
2018-09-23T01:52:13.101Z,101620.23
2018-09-23T01:53:13.617Z,101619.22
2018-09-23T01:54:13.816Z,101617.53
2018-09-23T01:55:13.975Z,101616.27
2018-09-23T01:56:14.221Z,101614.62
2018-09-23T01:57:14.441Z,101612.84
2018-09-23T01:58:15.247Z,101611.06
2018-09-23T01:59:15.554Z,101608.95
2018-09-23T02:00:15.967Z,101606.72
2018-09-23T02:01:16.222Z,101604.60
2018-09-23T02:02:16.626Z,101602.87
2018-09-23T02:03:16.919Z,101600.17
2018-09-23T02:04:17.217Z,101598.30
2018-09-23T02:05:17.483Z,101595.65
2018-09-23T02:06:17.738Z,101593.03
2018-09-23T02:07:17.027Z,101590.31
2018-09-23T02:08:18.376Z,101587.83
2018-09-23T02:09:18.696Z,101585.38
2018-09-23T02:10:19.007Z,101583.43
2018-09-23T02:11:19.337Z,101581.36
2018-09-23T02:12:19.654Z,101579.33
2018-09-23T02:13:19.990Z,101577.60
2018-09-23T02:14:20.369Z,101575.31
2018-09-23T02:15:20.784Z,101572.75
2018-09-23T02:16:21.094Z,101570.80
2018-09-23T02:17:21.371Z,101568.52
2018-09-23T02:18:21.765Z,101566.62
2018-09-23T02:19:22.083Z,101564.92
2018-09-23T02:20:22.313Z,101562.86
2018-09-23T02:21:22.585Z,101560.83
2018-09-23T02:22:22.900Z,101559.52
2018-09-23T02:23:23.200Z,101557.96
2018-09-23T02:24:23.499Z,101556.11
2018-09-23T02:25:23.733Z,101554.24
2018-09-23T02:26:24.107Z,101552.97
2018-09-23T02:27:24.413Z,101550.77
2018-09-23T02:28:25.024Z,101549.08
2018-09-23T02:29:25.360Z,101547.34
2018-09-23T02:30:25.624Z,101545.31
2018-09-23T02:31:25.901Z,101544.05
2018-09-23T02:32:26.320Z,101541.68
2018-09-23T02:32:34.373Z,101518.97
2018-09-23T02:33:35.700Z,101518.55
2018-09-23T02:34:36.147Z,101517.70
2018-09-23T02:35:36.152Z,101517.02
2018-09-23T02:36:36.708Z,101515.84
2018-09-23T02:37:37.253Z,101514.73
2018-09-23T02:38:37.497Z,101513.39
2018-09-23T02:39:37.874Z,101511.95
2018-09-23T02:40:38.158Z,101511.11
2018-09-23T02:41:38.445Z,101509.33
2018-09-23T02:42:38.949Z,101508.23
2018-09-23T02:43:39.415Z,101506.53
2018-09-23T02:44:39.896Z,101504.59
2018-09-23T02:45:40.191Z,101503.48
2018-09-23T02:46:40.622Z,101501.28
2018-09-23T02:47:40.949Z,101500.02
2018-09-23T02:48:41.231Z,101497.98
2018-09-23T02:49:41.840Z,101496.46
2018-09-23T02:50:42.156Z,101494.55
2018-09-23T02:51:42.587Z,101492.35
2018-09-23T02:52:42.870Z,101490.11
2018-09-23T02:53:43.192Z,101487.86
2018-09-23T02:54:43.473Z,101485.48
2018-09-23T02:55:43.767Z,101482.81
2018-09-23T02:56:44.095Z,101480.87
2018-09-23T02:57:44.325Z,101479.34
2018-09-23T02:58:44.737Z,101476.89
2018-09-23T02:59:43.922Z,101474.81
2018-09-23T03:00:45.191Z,101472.87
2018-09-23T03:01:45.502Z,101470.92
2018-09-23T03:02:46.199Z,101469.48
2018-09-23T03:03:46.505Z,101467.70
2018-09-23T03:04:46.774Z,101466.35
2018-09-23T03:05:47.155Z,101464.09
2018-09-23T03:06:47.544Z,101462.16
2018-09-23T03:07:47.904Z,101460.63
2018-09-23T03:08:48.240Z,101458.43
2018-09-23T03:09:48.625Z,101456.48
2018-09-23T03:10:48.966Z,101454.84
2018-09-23T03:11:49.265Z,101453.66
2018-09-23T03:12:49.533Z,101452.09
2018-09-23T03:13:49.869Z,101451.13
2018-09-23T03:14:50.389Z,101449.77
2018-09-23T03:15:50.670Z,101447.31
2018-09-23T03:16:51.051Z,101445.93
2018-09-23T03:17:51.673Z,101443.98
2018-09-23T03:17:59.713Z,101421.49
2018-09-23T03:19:01.255Z,101420.91
2018-09-23T03:20:01.474Z,101420.39
2018-09-23T03:21:01.690Z,101419.55
2018-09-23T03:22:01.931Z,101418.61
2018-09-23T03:23:02.269Z,101418.36
2018-09-23T03:24:01.650Z,101417.34
2018-09-23T03:25:02.888Z,101416.58
2018-09-23T03:26:03.138Z,101415.81
2018-09-23T03:27:03.345Z,101414.72
2018-09-23T03:28:03.639Z,101413.53
2018-09-23T03:29:03.937Z,101412.35
2018-09-23T03:30:04.232Z,101411.08
2018-09-23T03:31:04.510Z,101410.23
2018-09-23T03:32:04.824Z,101409.25
2018-09-23T03:33:05.160Z,101408.58
2018-09-23T03:34:05.520Z,101407.31
2018-09-23T03:35:05.801Z,101406.47
2018-09-23T03:36:06.093Z,101405.20
2018-09-23T03:37:06.677Z,101403.70
2018-09-23T03:38:06.976Z,101402.61
2018-09-23T03:39:07.192Z,101400.62
2018-09-23T03:40:07.575Z,101399.34
2018-09-23T03:41:07.771Z,101397.57
2018-09-23T03:42:08.043Z,101395.83
2018-09-23T03:43:08.262Z,101394.64
2018-09-23T03:44:08.532Z,101393.03
2018-09-23T03:45:08.815Z,101391.44
2018-09-23T03:46:09.050Z,101389.31
2018-09-23T03:47:09.265Z,101387.62
2018-09-23T03:48:09.496Z,101385.77
2018-09-23T03:49:10.100Z,101383.81
2018-09-23T03:50:10.483Z,101381.63
2018-09-23T03:51:10.704Z,101379.12
2018-09-23T03:52:10.155Z,101377.17
2018-09-23T03:53:11.681Z,101374.89
2018-09-23T03:54:11.951Z,101372.35
2018-09-23T03:55:12.247Z,101370.83
2018-09-23T03:56:12.543Z,101369.13
2018-09-23T03:57:12.820Z,101367.78
2018-09-23T03:58:13.239Z,101366.09
2018-09-23T03:59:13.479Z,101364.56
2018-09-23T04:00:13.766Z,101362.70
2018-09-23T04:01:14.279Z,101360.75
2018-09-23T04:02:14.528Z,101359.48
2018-09-23T04:03:14.753Z,101357.45
2018-09-23T04:04:14.975Z,101355.81
2018-09-23T04:04:23.329Z,101325.30
2018-09-23T04:05:24.570Z,101324.87
2018-09-23T04:06:24.996Z,101325.63
2018-09-23T04:07:25.363Z,101325.13
2018-09-23T04:08:25.643Z,101324.45
2018-09-23T04:09:26.053Z,101323.94
2018-09-23T04:10:26.427Z,101323.18
2018-09-23T04:11:26.844Z,101322.67
2018-09-23T04:12:27.138Z,101322.00
2018-09-23T04:13:27.524Z,101321.91
2018-09-23T04:14:28.007Z,101321.41
2018-09-23T04:15:28.300Z,101320.55
2018-09-23T04:16:28.710Z,101320.47
2018-09-23T04:17:28.966Z,101319.84
2018-09-23T04:18:29.182Z,101319.16
2018-09-23T04:19:29.529Z,101319.08
2018-09-23T04:20:29.845Z,101318.15
2018-09-23T04:21:30.396Z,101317.81
2018-09-23T04:22:30.646Z,101317.73
2018-09-23T04:23:31.025Z,101317.22
2018-09-23T04:24:31.455Z,101316.54
2018-09-23T04:25:31.821Z,101316.28
2018-09-23T04:26:32.299Z,101315.61
2018-09-23T04:27:32.358Z,101315.09
2018-09-23T04:28:32.666Z,101315.09
2018-09-23T04:29:32.954Z,101314.51
2018-09-23T04:30:33.280Z,101314.76
2018-09-23T04:31:33.576Z,101313.74
2018-09-23T04:32:33.886Z,101313.58
2018-09-23T04:33:34.312Z,101313.06
2018-09-23T04:34:34.628Z,101312.89
2018-09-23T04:35:35.071Z,101312.56
2018-09-23T04:36:35.527Z,101312.27
2018-09-23T04:37:35.888Z,101311.84
2018-09-23T04:38:36.229Z,101310.74
2018-09-23T04:39:36.543Z,101310.15
2018-09-23T04:40:36.969Z,101309.52
2018-09-23T04:41:37.278Z,101309.34
2018-09-23T04:42:37.534Z,101308.42
2018-09-23T04:43:37.878Z,101308.05
2018-09-23T04:44:38.228Z,101306.94
2018-09-23T04:45:37.488Z,101305.58
2018-09-23T04:46:39.116Z,101304.45
2018-09-23T04:47:39.381Z,101303.18
2018-09-23T04:48:39.547Z,101302.00
2018-09-23T04:48:47.597Z,101278.22
2018-09-23T04:49:48.846Z,101277.48
2018-09-23T04:50:49.063Z,101277.53
2018-09-23T04:51:49.363Z,101276.94
2018-09-23T04:52:49.730Z,101276.17
2018-09-23T04:53:49.994Z,101275.59
2018-09-23T04:54:50.326Z,101274.40
2018-09-23T04:55:50.735Z,101274.20
2018-09-23T04:56:51.076Z,101273.09
2018-09-23T04:57:51.344Z,101271.82
2018-09-23T04:58:51.589Z,101270.94
2018-09-23T04:59:51.849Z,101270.59
2018-09-23T05:00:52.186Z,101269.70
2018-09-23T05:01:52.398Z,101268.83
2018-09-23T05:02:52.714Z,101267.80
2018-09-23T05:03:52.952Z,101266.70
2018-09-23T05:04:53.224Z,101266.08
2018-09-23T05:05:53.450Z,101265.48
2018-09-23T05:06:53.732Z,101264.37
2018-09-23T05:07:53.988Z,101263.11
2018-09-23T05:08:54.191Z,101262.22
2018-09-23T05:09:54.470Z,101260.61
2018-09-23T05:10:54.702Z,101259.22
2018-09-23T05:11:55.320Z,101257.86
2018-09-23T05:12:55.913Z,101256.47
2018-09-23T05:13:56.175Z,101255.28
2018-09-23T05:14:56.512Z,101254.48
2018-09-23T05:15:56.755Z,101253.59
2018-09-23T05:16:57.097Z,101252.75
2018-09-23T05:17:57.337Z,101251.98
2018-09-23T05:18:57.429Z,101251.64
2018-09-23T05:19:57.771Z,101251.19
2018-09-23T05:20:58.052Z,101250.59
2018-09-23T05:21:58.828Z,101249.66
2018-09-23T05:22:59.273Z,101249.03
2018-09-23T05:23:59.629Z,101248.69
2018-09-23T05:25:00.033Z,101247.80
2018-09-23T05:26:00.328Z,101247.34
2018-09-23T05:27:00.567Z,101246.48
2018-09-23T05:28:01.337Z,101245.14
2018-09-23T05:29:01.717Z,101244.45
2018-09-23T05:30:02.123Z,101244.03
2018-09-23T05:31:02.567Z,101243.02
2018-09-23T05:32:01.710Z,101241.66
2018-09-23T05:33:03.070Z,101240.48
2018-09-23T05:33:11.577Z,101226.59
2018-09-23T05:34:12.946Z,101226.34
2018-09-23T05:35:13.415Z,101226.01
2018-09-23T05:36:13.765Z,101226.09
2018-09-23T05:37:14.047Z,101225.41
2018-09-23T05:38:14.287Z,101224.91
2018-09-23T05:39:14.554Z,101224.22
2018-09-23T05:40:15.116Z,101224.14
2018-09-23T05:41:15.391Z,101223.30
2018-09-23T05:42:15.646Z,101223.13
2018-09-23T05:43:15.974Z,101222.95
2018-09-23T05:44:16.382Z,101222.62
2018-09-23T05:45:16.616Z,101221.77
2018-09-23T05:46:16.947Z,101221.68
2018-09-23T05:47:17.332Z,101221.00
2018-09-23T05:48:17.525Z,101220.37
2018-09-23T05:49:17.776Z,101219.95
2018-09-23T05:50:18.030Z,101219.36
2018-09-23T05:51:18.260Z,101218.77
2018-09-23T05:52:18.698Z,101218.55
2018-09-23T05:53:18.942Z,101217.88
2018-09-23T05:54:19.156Z,101217.28
2018-09-23T05:55:19.429Z,101216.52
2018-09-23T05:56:19.858Z,101215.72
2018-09-23T05:57:20.354Z,101214.95
2018-09-23T05:58:20.790Z,101213.60
2018-09-23T05:59:21.058Z,101213.23
2018-09-23T06:00:21.266Z,101211.95
2018-09-23T06:01:21.677Z,101210.94
2018-09-23T06:02:21.915Z,101210.22
2018-09-23T06:03:22.200Z,101208.95
2018-09-23T06:04:22.467Z,101208.31
2018-09-23T06:05:22.942Z,101207.52
2018-09-23T06:06:23.199Z,101206.54
2018-09-23T06:07:23.446Z,101205.59
2018-09-23T06:08:24.124Z,101204.45
2018-09-23T06:09:23.512Z,101203.73
2018-09-23T06:10:24.816Z,101202.52
2018-09-23T06:11:25.118Z,101201.28
2018-09-23T06:12:25.392Z,101200.39
2018-09-23T06:13:25.627Z,101199.98
2018-09-23T06:14:25.968Z,101199.20
2018-09-23T06:15:26.653Z,101198.57
2018-09-23T06:16:27.050Z,101197.77
2018-09-23T06:16:35.342Z,101189.81
2018-09-23T06:17:36.603Z,101189.25
2018-09-23T06:18:36.869Z,101189.25
2018-09-23T06:19:37.195Z,101188.73
2018-09-23T06:20:37.428Z,101188.63
2018-09-23T06:21:37.918Z,101188.78
2018-09-23T06:22:38.249Z,101188.92
2018-09-23T06:23:38.566Z,101188.79
2018-09-23T06:24:38.869Z,101188.78
2018-09-23T06:25:39.313Z,101188.41
2018-09-23T06:26:39.684Z,101188.23
2018-09-23T06:27:40.120Z,101187.80
2018-09-23T06:28:40.342Z,101187.34
2018-09-23T06:29:40.650Z,101186.16
2018-09-23T06:30:41.026Z,101185.39
2018-09-23T06:31:41.434Z,101184.84
2018-09-23T06:32:41.707Z,101183.58
2018-09-23T06:33:42.054Z,101182.13
2018-09-23T06:34:42.327Z,101180.52
2018-09-23T06:35:42.592Z,101179.72
2018-09-23T06:36:43.114Z,101179.37
2018-09-23T06:37:43.368Z,101178.44
2018-09-23T06:38:43.698Z,101177.64
2018-09-23T06:39:43.995Z,101177.05
2018-09-23T06:40:44.271Z,101176.12
2018-09-23T06:41:44.615Z,101175.23
2018-09-23T06:42:44.962Z,101174.38
2018-09-23T06:43:45.328Z,101172.81
2018-09-23T06:44:45.582Z,101171.96
2018-09-23T06:45:46.028Z,101171.84
2018-09-23T06:46:45.269Z,101170.90
2018-09-23T06:47:46.488Z,101170.95
2018-09-23T06:48:46.745Z,101170.39
2018-09-23T06:49:47.063Z,101170.27
2018-09-23T06:50:47.279Z,101169.84
2018-09-23T06:51:47.509Z,101169.03
2018-09-23T06:52:47.734Z,101168.23
2018-09-23T06:53:47.922Z,101167.34
2018-09-23T06:54:48.128Z,101166.03
2018-09-23T06:55:48.372Z,101165.47
2018-09-23T06:56:48.649Z,101165.09
2018-09-23T06:57:47.849Z,101164.62
2018-09-23T06:58:49.100Z,101164.75
2018-09-23T06:59:49.320Z,101164.36
2018-09-23T07:00:49.370Z,101163.73
2018-09-23T07:01:49.743Z,101162.92
2018-09-23T07:02:50.002Z,101162.20
2018-09-23T07:02:58.508Z,101151.34
2018-09-23T07:03:59.849Z,101150.59
2018-09-23T07:05:00.221Z,101149.99
2018-09-23T07:05:59.453Z,101149.31
2018-09-23T07:07:00.818Z,101148.89
2018-09-23T07:08:01.248Z,101148.43
2018-09-23T07:09:01.624Z,101148.76
2018-09-23T07:10:01.979Z,101148.89
2018-09-23T07:11:02.273Z,101149.39
2018-09-23T07:12:02.528Z,101150.11
2018-09-23T07:13:02.801Z,101149.94
2018-09-23T07:14:03.064Z,101149.73
2018-09-23T07:15:03.423Z,101149.69
2018-09-23T07:16:03.669Z,101149.68
2018-09-23T07:17:03.975Z,101149.08
2018-09-23T07:18:04.567Z,101148.70
2018-09-23T07:19:03.677Z,101148.36
2018-09-23T07:20:04.988Z,101147.73
2018-09-23T07:21:05.295Z,101147.72
2018-09-23T07:22:05.693Z,101147.30
2018-09-23T07:23:06.156Z,101146.75
2018-09-23T07:24:06.567Z,101146.16
2018-09-23T07:25:05.707Z,101145.85
2018-09-23T07:26:07.168Z,101146.06
2018-09-23T07:27:07.464Z,101146.02
2018-09-23T07:28:07.769Z,101146.65
2018-09-23T07:29:08.033Z,101146.60
2018-09-23T07:30:08.311Z,101145.89
2018-09-23T07:31:08.659Z,101145.63
2018-09-23T07:32:08.877Z,101145.50
2018-09-23T07:33:09.097Z,101145.49
2018-09-23T07:34:09.405Z,101145.20
2018-09-23T07:35:09.612Z,101144.85
2018-09-23T07:36:09.881Z,101144.39
2018-09-23T07:37:10.343Z,101143.70
2018-09-23T07:38:09.515Z,101142.80
2018-09-23T07:39:10.730Z,101142.00
2018-09-23T07:40:11.155Z,101141.27
2018-09-23T07:41:11.713Z,101139.63
2018-09-23T07:42:11.985Z,101138.14
2018-09-23T07:43:12.233Z,101137.16
2018-09-23T07:44:12.520Z,101136.64
2018-09-23T07:45:12.964Z,101136.09
2018-09-23T07:46:13.287Z,101135.92
2018-09-23T07:47:13.533Z,101135.63
2018-09-23T07:48:13.828Z,101135.66
2018-09-23T07:49:14.272Z,101134.98
2018-09-23T07:49:22.313Z,101134.41
2018-09-23T07:50:23.550Z,101133.83
2018-09-23T07:51:23.685Z,101133.99
2018-09-23T07:52:24.003Z,101133.56
2018-09-23T07:53:24.359Z,101132.88
2018-09-23T07:54:24.677Z,101132.97
2018-09-23T07:55:25.481Z,101131.87
2018-09-23T07:56:25.870Z,101130.85
2018-09-23T07:57:25.147Z,101130.77
2018-09-23T07:58:26.454Z,101129.45
2018-09-23T07:59:26.790Z,101128.43
2018-09-23T08:00:27.053Z,101127.20
2018-09-23T08:01:27.308Z,101125.84
2018-09-23T08:02:27.574Z,101124.63
2018-09-23T08:03:28.029Z,101123.15
2018-09-23T08:04:27.197Z,101121.74
2018-09-23T08:05:28.453Z,101120.22
2018-09-23T08:06:28.745Z,101119.14
2018-09-23T08:07:29.300Z,101118.03
2018-09-23T08:08:29.567Z,101116.16
2018-09-23T08:09:29.880Z,101114.63
2018-09-23T08:10:30.224Z,101113.46
2018-09-23T08:11:30.506Z,101112.14
2018-09-23T08:12:30.848Z,101110.69
2018-09-23T08:13:30.231Z,101109.23
2018-09-23T08:14:30.657Z,101108.54
2018-09-23T08:15:30.736Z,101107.64
2018-09-23T08:16:31.968Z,101107.03
2018-09-23T08:17:32.329Z,101106.42
2018-09-23T08:18:32.705Z,101105.81
2018-09-23T08:19:33.508Z,101105.80
2018-09-23T08:20:32.671Z,101105.38
2018-09-23T08:21:32.963Z,101105.48
2018-09-23T08:22:34.256Z,101104.66
2018-09-23T08:23:34.548Z,101104.23
2018-09-23T08:24:35.128Z,101103.41
2018-09-23T08:25:35.561Z,101102.23
2018-09-23T08:26:34.990Z,101101.06
2018-09-23T08:27:35.161Z,101100.30
2018-09-23T08:28:36.524Z,101099.65
2018-09-23T08:29:36.893Z,101098.71
2018-09-23T08:30:37.303Z,101097.63
2018-09-23T08:31:37.607Z,101097.53
2018-09-23T08:32:36.948Z,101096.42
2018-09-23T08:33:38.220Z,101095.73
2018-09-23T08:34:38.246Z,101094.98
2018-09-23T08:35:38.511Z,101093.97
2018-09-23T08:36:38.937Z,101092.89
2018-09-23T08:37:39.285Z,101091.91
2018-09-23T08:38:39.551Z,101090.97
2018-09-23T08:39:39.813Z,101089.89
2018-09-23T08:40:40.031Z,101088.86
2018-09-23T08:40:48.366Z,101069.10
2018-09-23T08:41:49.658Z,101068.34
2018-09-23T08:42:49.794Z,101068.67
2018-09-23T08:43:48.970Z,101068.30
2018-09-23T08:44:50.171Z,101068.33
2018-09-23T08:45:50.503Z,101068.73
2018-09-23T08:46:50.750Z,101069.28
2018-09-23T08:47:51.060Z,101069.41
2018-09-23T08:48:50.225Z,101069.58
2018-09-23T08:49:52.026Z,101069.36
2018-09-23T08:50:52.667Z,101069.56
2018-09-23T08:51:53.064Z,101069.22
2018-09-23T08:52:52.392Z,101068.91
2018-09-23T08:53:53.838Z,101068.44
2018-09-23T08:54:56.824Z,101067.80
2018-09-23T08:55:54.593Z,101067.41
2018-09-23T08:56:55.966Z,101066.51
2018-09-23T08:57:56.222Z,101064.97
2018-09-23T08:58:56.550Z,101064.23
2018-09-23T08:59:57.163Z,101062.66
2018-09-23T09:00:57.727Z,101061.20
2018-09-23T09:01:58.006Z,101059.19
2018-09-23T09:02:58.437Z,101057.47
2018-09-23T09:03:58.780Z,101054.83
2018-09-23T09:04:59.149Z,101053.63
2018-09-23T09:05:59.682Z,101052.84
2018-09-23T09:07:00.026Z,101051.88
2018-09-23T09:08:00.510Z,101050.92
2018-09-23T09:09:00.909Z,101050.01
2018-09-23T09:10:01.736Z,101048.88
2018-09-23T09:11:02.108Z,101048.20
2018-09-23T09:12:02.617Z,101046.91
2018-09-23T09:13:03.142Z,101045.27
2018-09-23T09:14:03.465Z,101043.84
2018-09-23T09:15:03.746Z,101041.88
2018-09-23T09:16:04.039Z,101039.97
2018-09-23T09:17:04.526Z,101037.70
2018-09-23T09:18:04.900Z,101035.88
2018-09-23T09:19:05.315Z,101034.36
2018-09-23T09:20:05.702Z,101033.06
2018-09-23T09:21:06.213Z,101031.42
2018-09-23T09:22:06.721Z,101029.92
2018-09-23T09:23:07.043Z,101028.62
2018-09-23T09:23:15.316Z,101004.88
2018-09-23T09:24:16.611Z,101004.31
2018-09-23T09:25:16.959Z,101004.20
2018-09-23T09:26:17.509Z,101004.62
2018-09-23T09:27:17.960Z,101004.95
2018-09-23T09:28:18.301Z,101005.88
2018-09-23T09:29:18.932Z,101006.05
2018-09-23T09:30:18.286Z,101006.47
2018-09-23T09:31:19.617Z,101006.47
2018-09-23T09:32:20.039Z,101006.30
2018-09-23T09:33:20.334Z,101005.67
2018-09-23T09:34:20.781Z,101004.65
2018-09-23T09:35:21.046Z,101003.63
2018-09-23T09:36:20.317Z,101002.91
2018-09-23T09:37:21.618Z,101001.70
2018-09-23T09:38:21.969Z,101000.95
2018-09-23T09:39:21.250Z,101000.36
2018-09-23T09:40:22.782Z,101000.11
2018-09-23T09:41:23.126Z,100999.98
2018-09-23T09:42:23.477Z,100998.94
2018-09-23T09:43:23.803Z,100997.38
2018-09-23T09:44:24.267Z,100996.11
2018-09-23T09:45:24.595Z,100994.89
2018-09-23T09:46:25.047Z,100993.91
2018-09-23T09:47:25.449Z,100991.88
2018-09-23T09:48:25.790Z,100989.98
2018-09-23T09:49:26.444Z,100988.33
2018-09-23T09:50:26.853Z,100986.47
2018-09-23T09:51:27.235Z,100984.47
2018-09-23T09:52:27.566Z,100982.45
2018-09-23T09:53:27.918Z,100979.94
2018-09-23T09:54:27.204Z,100977.82
2018-09-23T09:55:28.668Z,100975.87
2018-09-23T09:56:27.787Z,100974.59
2018-09-23T09:57:29.033Z,100972.13
2018-09-23T09:58:29.320Z,100970.34
2018-09-23T09:59:29.873Z,100968.04
2018-09-23T10:00:30.207Z,100966.30
2018-09-23T10:01:30.506Z,100964.75
2018-09-23T10:02:30.830Z,100962.92
2018-09-23T10:03:31.131Z,100961.63
2018-09-23T10:04:31.416Z,100959.72
2018-09-23T10:05:31.753Z,100958.31
2018-09-23T10:06:32.033Z,100956.01
2018-09-23T10:07:32.407Z,100953.95
2018-09-23T10:08:32.788Z,100952.05
2018-09-23T10:09:33.234Z,100950.33
2018-09-23T10:10:33.684Z,100947.73
2018-09-23T10:10:45.031Z,100916.44
2018-09-23T10:11:46.053Z,100915.84
2018-09-23T10:12:45.412Z,100915.50
2018-09-23T10:13:46.743Z,100915.16
2018-09-23T10:14:47.166Z,100915.25
2018-09-23T10:15:47.611Z,100914.73
2018-09-23T10:16:47.999Z,100914.44
2018-09-23T10:17:48.386Z,100914.09
2018-09-23T10:18:48.992Z,100912.42
2018-09-23T10:19:49.397Z,100911.76
2018-09-23T10:20:49.977Z,100910.97
2018-09-23T10:21:50.290Z,100909.20
2018-09-23T10:22:50.639Z,100907.17
2018-09-23T10:23:50.940Z,100905.14
2018-09-23T10:24:50.293Z,100902.91
2018-09-23T10:25:51.736Z,100900.49
2018-09-23T10:26:52.017Z,100897.74
2018-09-23T10:27:52.262Z,100895.24
2018-09-23T10:28:52.636Z,100892.57
2018-09-23T10:29:52.954Z,100890.11
2018-09-23T10:30:52.240Z,100887.27
2018-09-23T10:31:53.690Z,100885.06
2018-09-23T10:32:52.906Z,100882.89
2018-09-23T10:33:54.212Z,100881.11
2018-09-23T10:34:54.807Z,100878.59
2018-09-23T10:35:55.170Z,100875.96
2018-09-23T10:36:55.548Z,100873.78
2018-09-23T10:37:55.811Z,100871.40
2018-09-23T10:38:56.192Z,100868.20
2018-09-23T10:39:56.460Z,100865.68
2018-09-23T10:40:56.708Z,100862.69
2018-09-23T10:41:56.998Z,100859.63
2018-09-23T10:42:57.392Z,100856.69
2018-09-23T10:43:57.681Z,100853.59
2018-09-23T10:44:57.938Z,100850.67
2018-09-23T10:45:58.229Z,100847.98
2018-09-23T10:46:58.565Z,100845.41
2018-09-23T10:47:59.007Z,100843.45
2018-09-23T10:48:59.322Z,100840.73
2018-09-23T10:49:59.641Z,100838.14
2018-09-23T10:51:00.095Z,100835.22
2018-09-23T10:52:00.383Z,100832.20
2018-09-23T10:53:00.667Z,100828.65
2018-09-23T10:54:00.988Z,100825.52
2018-09-23T10:55:01.236Z,100822.39
2018-09-23T10:56:01.666Z,100819.31
2018-09-23T10:56:10.098Z,100764.62
2018-09-23T10:57:10.357Z,100763.86
2018-09-23T10:58:11.895Z,100763.18
2018-09-23T10:59:11.211Z,100762.37
2018-09-23T11:00:12.638Z,100761.28
2018-09-23T11:01:12.967Z,100760.59
2018-09-23T11:02:13.530Z,100759.23
2018-09-23T11:03:13.783Z,100758.13
2018-09-23T11:04:14.115Z,100756.97
2018-09-23T11:05:13.436Z,100755.93
2018-09-23T11:06:14.706Z,100753.72
2018-09-23T11:07:15.033Z,100751.67
2018-09-23T11:08:15.254Z,100750.06
2018-09-23T11:09:15.686Z,100747.95
2018-09-23T11:10:16.325Z,100745.69
2018-09-23T11:11:16.613Z,100743.47
2018-09-23T11:12:16.891Z,100741.60
2018-09-23T11:13:17.221Z,100739.48
2018-09-23T11:14:17.583Z,100737.44
2018-09-23T11:15:17.912Z,100735.22